Time,TemperatureF,DewpointF,PressureIn,WindDirection,WindDirectionDegrees,WindSpeedMPH,WindSpeedGustMPH,Humidity,HourlyPrecipIn,Conditions,Clouds,dailyrainin,SoftwareType,DateUTC
2013-07-21 17:42:00,86.0,75.0,29.78,WSW,258,12.0,20.0,70,0.00,,,0.40,,2013-07-22 00:42:00,
2013-07-21 17:53:00,86.0,76.0,29.78,SW,220,2.0,7.0,72,0.00,,,0.40,,2013-07-22 00:53:00,
2013-07-21 18:02:00,86.0,76.0,29.78,West,267,3.0,4.0,72,0.00,,,0.40,,2013-07-22 01:02:00,
2013-07-21 18:11:00,86.0,75.0,29.78,West,270,1.0,3.0,70,0.00,,,0.40,,2013-07-22 01:11:00,
2013-07-21 18:21:00,87.0,76.0,29.78,WNW,296,0.0,1.0,69,0.00,,,0.40,,2013-07-22 01:21:00,
2013-07-21 18:32:00,87.0,76.0,29.78,WNW,287,2.0,3.0,70,0.00,,,0.40,,2013-07-22 01:32:00,
2013-07-21 18:42:00,88.0,77.0,29.78,West,275,2.0,3.0,69,0.00,,,0.40,,2013-07-22 01:42:00,
2013-07-21 18:52:00,88.0,75.0,29.78,NW,309,1.0,2.0,66,0.00,,,0.40,,2013-07-22 01:52:00,
2013-07-21 19:01:00,88.0,75.0,29.78,WNW,293,5.0,5.0,65,0.00,,,0.40,,2013-07-22 02:01:00,
2013-07-21 19:11:00,88.0,75.0,29.78,West,259,0.0,2.0,66,0.00,,,0.40,,2013-07-22 02:11:00,
2013-07-21 19:22:00,88.0,76.0,29.78,NW,317,0.0,1.0,67,0.00,,,0.40,,2013-07-22 02:22:00,
2013-07-21 19:32:00,87.0,74.0,29.78,NW,304,0.0,1.0,66,0.00,,,0.40,,2013-07-22 02:32:00,
2013-07-21 19:43:00,87.0,75.0,29.78,NW,312,0.0,0.0,68,0.00,,,0.40,,2013-07-22 02:43:00,
2013-07-21 19:52:00,87.0,75.0,29.78,NW,312,0.0,0.0,67,0.00,,,0.40,,2013-07-22 02:52:00,
2013-07-21 20:01:00,86.0,73.0,29.78,NW,312,0.0,0.0,66,0.00,,,0.40,,2013-07-22 03:01:00,
2013-07-21 20:11:00,86.0,73.0,29.78,NW,313,0.0,0.0,66,0.00,,,0.40,,2013-07-22 03:11:00,
2013-07-21 20:22:00,86.0,74.0,29.78,NW,312,0.0,0.0,68,0.00,,,0.40,,2013-07-22 03:22:00,
2013-07-21 20:32:00,85.0,73.0,29.78,NW,312,0.0,0.0,67,0.00,,,0.40,,2013-07-22 03:32:00,
2013-07-21 20:43:00,85.0,74.0,29.79,NW,311,0.0,0.0,69,0.00,,,0.40,,2013-07-22 03:43:00,
2013-07-21 20:52:00,84.0,73.0,29.79,NW,311,0.0,0.0,70,0.00,,,0.40,,2013-07-22 03:52:00,
2013-07-21 21:01:00,84.0,74.0,29.80,NW,312,0.0,0.0,72,0.00,,,0.40,,2013-07-22 04:01:00,
2013-07-21 21:11:00,84.0,75.0,29.80,NW,312,0.0,1.0,75,0.00,,,0.40,,2013-07-22 04:11:00,
2013-07-21 21:22:00,84.0,76.0,29.81,SSE,147,1.0,3.0,76,0.00,,,0.40,,2013-07-22 04:22:00,
2013-07-21 21:33:00,84.0,76.0,29.81,SSE,147,0.0,0.0,76,0.00,,,0.40,,2013-07-22 04:33:00,
2013-07-21 21:42:00,84.0,75.0,29.81,SSE,148,0.0,0.0,75,0.00,,,0.40,,2013-07-22 04:42:00,
2013-07-21 22:01:00,83.0,75.0,29.82,SSE,147,0.0,0.0,78,0.00,,,0.40,,2013-07-22 05:01:00,
2013-07-21 22:11:00,83.0,75.0,29.82,SE,146,0.0,0.0,77,0.00,,,0.40,,2013-07-22 05:11:00,
2013-07-21 22:22:00,82.0,75.0,29.82,SE,132,0.0,0.0,79,0.00,,,0.40,,2013-07-22 05:22:00,
2013-07-21 22:32:00,82.0,74.0,29.82,SE,132,0.0,0.0,78,0.00,,,0.40,,2013-07-22 05:32:00,
2013-07-21 22:42:00,82.0,74.0,29.82,SE,132,0.0,0.0,78,0.00,,,0.40,,2013-07-22 05:42:00,
2013-07-21 22:52:00,82.0,74.0,29.82,SE,131,0.0,0.0,78,0.00,,,0.40,,2013-07-22 05:52:00,
2013-07-21 23:01:00,82.0,74.0,29.82,SE,132,0.0,0.0,78,0.00,,,0.40,,2013-07-22 06:01:00,
2013-07-21 23:11:00,82.0,74.0,29.82,SE,132,0.0,0.0,78,0.00,,,0.40,,2013-07-22 06:11:00,
2013-07-21 23:32:00,81.0,74.0,29.82,SE,132,0.0,0.0,80,0.00,,,0.40,,2013-07-22 06:32:00,
2013-07-21 23:43:00,81.0,75.0,29.82,SE,132,0.0,0.0,82,0.00,,,0.40,,2013-07-22 06:43:00,
2013-07-21 23:52:00,81.0,75.0,29.82,SE,132,0.0,1.0,83,0.00,,,0.40,,2013-07-22 06:52:00,